Time;durP1;ratioP1;P1;durP2;ratioP2;P2;SDS_P1;SDS_P2;PMS_P1;PMS_P2;Temp;Humidity;BMP_temperature;BMP_pressure;BME280_temperature;BME280_humidity;BME280_pressure;Samples;Min_cycle;Max_cycle;Signal;HPM_P1;HPM_P2
2022/03/18 00:01:21;;;;;;;18.53;6.90;;;3.80;99.90;;;;;;6206352;23;20028;-35
2022/03/18 00:03:47;;;;;;;21.03;7.47;;;3.80;99.90;;;;;;6208596;23;20021;-36
2022/03/18 00:06:16;;;;;;;18.70;7.47;;;3.80;99.90;;;;;;6196546;23;20114;-35
2022/03/18 00:08:42;;;;;;;21.73;7.57;;;3.80;99.90;;;;;;6199622;23;20270;-32
2022/03/18 00:11:08;;;;;;;19.47;7.03;;;3.80;99.90;;;;;;6208499;23;20024;-36
2022/03/18 00:13:34;;;;;;;22.20;6.83;;;3.80;99.90;;;;;;6208011;23;20206;-34
2022/03/18 00:16:00;;;;;;;18.97;7.47;;;3.70;99.90;;;;;;6208179;23;20349;-35
2022/03/18 00:18:26;;;;;;;21.43;7.10;;;3.70;99.90;;;;;;6186799;23;20023;-35
2022/03/18 00:20:52;;;;;;;23.63;7.20;;;3.70;99.90;;;;;;6206635;23;20082;-36
2022/03/18 00:23:17;;;;;;;22.07;7.50;;;3.70;99.90;;;;;;6207771;23;20025;-36
2022/03/18 00:25:43;;;;;;;20.60;7.20;;;3.80;99.90;;;;;;6208003;23;20111;-35
2022/03/18 00:28:09;;;;;;;21.20;8.00;;;3.70;99.90;;;;;;6187872;23;20337;-32
2022/03/18 00:30:35;;;;;;;46.07;20.40;;;3.70;99.90;;;;;;6208653;23;20036;-34
2022/03/18 00:33:00;;;;;;;17.40;7.67;;;3.70;99.90;;;;;;6207576;23;20087;-33
2022/03/18 00:35:26;;;;;;;20.47;8.37;;;3.70;99.90;;;;;;6208404;23;20021;-35
2022/03/18 00:37:52;;;;;;;27.77;9.00;;;3.60;99.90;;;;;;6189324;23;20476;-36
2022/03/18 00:40:18;;;;;;;17.60;6.87;;;3.60;99.90;;;;;;6207905;23;20357;-36
2022/03/18 00:42:44;;;;;;;18.17;7.57;;;3.60;99.90;;;;;;6208134;23;20027;-33
2022/03/18 00:45:10;;;;;;;23.27;7.33;;;3.60;99.90;;;;;;6207597;23;20502;-33
2022/03/18 00:53:04;;;;;;;20.43;7.43;;;3.50;99.90;;;;;;6207312;23;20467;-36
2022/03/18 00:55:30;;;;;;;19.43;7.57;;;3.50;99.90;;;;;;6207682;23;20361;-32
2022/03/18 00:57:56;;;;;;;26.17;8.13;;;3.50;99.90;;;;;;6188389;23;20449;-36
2022/03/18 01:00:21;;;;;;;24.93;7.93;;;3.50;99.90;;;;;;6207726;23;20021;-35
2022/03/18 01:02:47;;;;;;;21.90;7.97;;;3.50;99.90;;;;;;6205927;23;20021;-35
2022/03/18 01:05:13;;;;;;;26.27;8.27;;;3.60;99.90;;;;;;6208244;23;20152;-35
2022/03/18 01:07:38;;;;;;;20.27;8.43;;;3.50;99.90;;;;;;6185726;23;20048;-35
2022/03/18 01:10:05;;;;;;;13.40;7.57;;;3.50;99.90;;;;;;6206258;23;20332;-35
2022/03/18 01:12:30;;;;;;;24.13;8.73;;;3.50;99.90;;;;;;6207532;23;20024;-33
2022/03/18 01:14:56;;;;;;;22.37;9.40;;;3.50;99.90;;;;;;6207962;23;20019;-34
2022/03/18 01:17:22;;;;;;;21.83;8.40;;;3.50;99.90;;;;;;6186367;23;20028;-34
2022/03/18 01:19:48;;;;;;;21.00;8.43;;;3.50;99.90;;;;;;6208523;23;20031;-35
2022/03/18 01:22:14;;;;;;;25.63;9.17;;;3.50;99.90;;;;;;6207020;23;20016;-36
2022/03/18 01:24:40;;;;;;;21.97;8.57;;;3.50;99.90;;;;;;6207847;23;20022;-34
2022/03/18 01:27:06;;;;;;;24.17;9.20;;;3.60;99.90;;;;;;6187798;23;20016;-35
2022/03/18 01:29:32;;;;;;;24.90;9.07;;;3.60;99.90;;;;;;6205434;23;20017;-34
2022/03/18 01:31:59;;;;;;;20.83;8.30;;;3.50;99.90;;;;;;6208175;23;20043;-35
2022/03/18 01:34:25;;;;;;;21.53;7.93;;;3.50;99.90;;;;;;6206937;23;20021;-34
2022/03/18 01:36:51;;;;;;;21.70;7.90;;;3.50;99.90;;;;;;6188980;23;20488;-36
2022/03/18 01:39:16;;;;;;;22.63;8.53;;;3.50;99.90;;;;;;6207299;23;20024;-35
2022/03/18 01:41:42;;;;;;;22.50;7.80;;;3.50;99.90;;;;;;6208293;23;20314;-35
2022/03/18 01:44:12;;;;;;;21.90;8.47;;;3.50;99.90;;;;;;6206207;23;20025;-36
2022/03/18 01:46:39;;;;;;;20.33;8.83;;;3.50;99.90;;;;;;6189190;23;20518;-36
2022/03/18 01:49:06;;;;;;;20.57;8.57;;;3.50;99.90;;;;;;6204325;23;20032;-35
2022/03/18 01:51:33;;;;;;;18.67;8.23;;;3.50;99.90;;;;;;6207999;23;20387;-33
2022/03/18 01:56:44;;;;;;;26.43;9.53;;;3.50;99.90;;;;;;6189046;23;20031;-33
2022/03/18 01:59:12;;;;;;;18.03;8.80;;;3.50;99.90;;;;;;6204255;23;20025;-35
2022/03/18 02:01:38;;;;;;;22.30;9.43;;;3.50;99.90;;;;;;6207750;23;20095;-34
2022/03/18 02:04:05;;;;;;;19.90;9.33;;;3.50;99.90;;;;;;6206315;23;20052;-35
2022/03/18 02:06:30;;;;;;;25.27;9.30;;;3.50;99.90;;;;;;6190804;23;20087;-35
2022/03/18 02:08:56;;;;;;;25.17;9.37;;;3.60;99.90;;;;;;6204801;23;20468;-35
2022/03/18 02:11:23;;;;;;;20.93;9.00;;;3.60;99.90;;;;;;6206925;23;20100;-36
2022/03/18 02:13:51;;;;;;;22.37;8.77;;;3.60;99.90;;;;;;6206820;23;20031;-34
2022/03/18 02:16:17;;;;;;;20.67;9.27;;;3.60;99.90;;;;;;6192265;23;20021;-35
2022/03/18 02:18:43;;;;;;;24.67;9.63;;;3.60;99.90;;;;;;6200650;23;20024;-33
2022/03/18 02:21:11;;;;;;;22.20;9.60;;;3.70;99.90;;;;;;6207142;23;20052;-34
2022/03/18 02:23:36;;;;;;;24.17;10.33;;;3.70;99.90;;;;;;6206183;23;20028;-35
2022/03/18 02:26:02;;;;;;;25.67;10.07;;;3.70;99.90;;;;;;6206881;23;20070;-32
2022/03/18 02:28:28;;;;;;;23.97;9.67;;;3.70;99.90;;;;;;6187501;23;20114;-33
2022/03/18 02:30:53;;;;;;;28.40;9.37;;;3.70;99.90;;;;;;6206049;23;20470;-35
2022/03/18 02:33:19;;;;;;;21.43;9.87;;;3.70;99.90;;;;;;6206219;23;20016;-34
2022/03/18 02:35:45;;;;;;;21.53;9.30;;;3.80;99.90;;;;;;6207176;23;20022;-34
2022/03/18 02:38:10;;;;;;;24.47;10.53;;;3.80;99.90;;;;;;6186167;23;20024;-34
2022/03/18 02:40:36;;;;;;;25.30;9.20;;;3.80;99.90;;;;;;6207554;23;20016;-36
2022/03/18 02:43:02;;;;;;;24.30;9.97;;;3.80;99.90;;;;;;6206158;23;20459;-33
2022/03/18 02:45:29;;;;;;;28.20;10.40;;;3.80;99.90;;;;;;6204871;23;20042;-35
2022/03/18 02:47:55;;;;;;;20.10;9.83;;;3.80;99.90;;;;;;6187867;23;20038;-32
2022/03/18 02:50:20;;;;;;;25.90;9.77;;;3.80;99.90;;;;;;6207177;23;20095;-34
2022/03/18 02:52:47;;;;;;;20.97;9.33;;;3.90;99.90;;;;;;6204814;23;20356;-34
2022/03/18 02:55:13;;;;;;;19.20;9.17;;;3.90;99.90;;;;;;6204454;23;20467;-36
2022/03/18 02:57:39;;;;;;;20.13;8.73;;;3.90;99.90;;;;;;6187308;23;20028;-35
2022/03/18 03:00:06;;;;;;;17.70;8.60;;;4.00;99.90;;;;;;6206750;23;20020;-36
2022/03/18 03:02:32;;;;;;;22.23;8.70;;;4.00;99.90;;;;;;6206189;23;20017;-34
2022/03/18 03:07:59;;;;;;;25.07;9.00;;;4.00;99.90;;;;;;6186969;23;20051;-35
2022/03/18 03:10:30;;;;;;;20.63;8.17;;;4.00;99.90;;;;;;6206917;23;20026;-35
2022/03/18 03:12:58;;;;;;;17.95;6.97;;;4.10;99.90;;;;;;6206391;23;20044;-35
2022/03/18 03:15:23;;;;;;;22.50;9.23;;;4.10;99.90;;;;;;6204387;23;20016;-35
2022/03/18 03:17:49;;;;;;;17.17;8.17;;;4.10;99.90;;;;;;6187562;23;20079;-35
2022/03/18 03:20:15;;;;;;;17.27;7.60;;;4.10;99.90;;;;;;6206514;23;20021;-34
2022/03/18 03:22:41;;;;;;;18.03;8.20;;;4.10;99.90;;;;;;6206333;23;20267;-35
2022/03/18 03:25:07;;;;;;;18.17;8.57;;;4.20;99.90;;;;;;6205989;23;20363;-32
2022/03/18 03:27:33;;;;;;;21.27;8.37;;;4.20;99.90;;;;;;6186986;23;20382;-35
2022/03/18 03:30:03;;;;;;;17.93;8.43;;;4.20;99.90;;;;;;6204335;23;20624;-32
2022/03/18 03:32:29;;;;;;;20.77;8.33;;;4.30;99.90;;;;;;6206706;23;20154;-35
2022/03/18 03:34:57;;;;;;;17.97;8.50;;;4.30;99.90;;;;;;6205460;23;20069;-33
2022/03/18 03:37:25;;;;;;;26.53;9.37;;;4.30;99.90;;;;;;6186897;23;20078;-35
2022/03/18 03:39:51;;;;;;;18.97;8.80;;;4.30;99.90;;;;;;6207371;23;20473;-35
2022/03/18 03:42:17;;;;;;;25.17;9.77;;;4.30;99.90;;;;;;6204771;23;20013;-33
2022/03/18 03:44:43;;;;;;;20.50;8.83;;;4.40;99.90;;;;;;6179463;23;20111;-32
2022/03/18 03:47:10;;;;;;;17.37;8.40;;;4.40;99.90;;;;;;6187205;23;20025;-34
2022/03/18 03:49:35;;;;;;;19.13;9.00;;;4.50;99.90;;;;;;6206503;23;20052;-34
2022/03/18 03:52:01;;;;;;;24.80;9.10;;;4.50;99.90;;;;;;6206859;23;20028;-34
2022/03/18 03:54:29;;;;;;;20.60;9.17;;;4.50;99.90;;;;;;6205792;23;20028;-34
2022/03/18 03:56:55;;;;;;;19.63;8.60;;;4.50;99.90;;;;;;6188239;23;20032;-35
2022/03/18 03:59:22;;;;;;;17.20;8.63;;;4.50;99.90;;;;;;6204964;23;20028;-33
2022/03/18 04:01:48;;;;;;;20.23;9.23;;;4.70;99.90;;;;;;6207519;23;20017;-34
2022/03/18 04:04:14;;;;;;;19.07;8.57;;;4.70;99.90;;;;;;6205645;23;20082;-34
2022/03/18 04:06:39;;;;;;;21.00;8.90;;;4.60;99.90;;;;;;6187864;23;20471;-34
2022/03/18 04:09:05;;;;;;;18.77;8.70;;;4.60;99.90;;;;;;6203156;23;20100;-35
2022/03/18 04:11:31;;;;;;;26.23;9.63;;;4.60;99.90;;;;;;6207184;23;20080;-35
2022/03/18 04:13:56;;;;;;;19.80;9.23;;;4.70;99.90;;;;;;6204303;23;20032;-35
2022/03/18 04:16:22;;;;;;;22.07;9.63;;;4.70;99.90;;;;;;6191553;23;20043;-34
2022/03/18 04:18:48;;;;;;;20.03;9.50;;;4.70;99.90;;;;;;6202204;23;20076;-35
2022/03/18 04:21:14;;;;;;;17.20;9.37;;;4.70;99.90;;;;;;6204155;23;20044;-31
2022/03/18 04:23:41;;;;;;;19.27;8.77;;;4.70;99.90;;;;;;6206141;23;20448;-33
2022/03/18 04:26:07;;;;;;;19.13;9.67;;;4.70;99.90;;;;;;6198183;23;20044;-36
2022/03/18 04:28:32;;;;;;;21.03;10.03;;;4.70;99.90;;;;;;6193347;23;20449;-35
2022/03/18 04:30:58;;;;;;;18.73;9.60;;;4.80;99.90;;;;;;6208373;23;20066;-36
2022/03/18 04:33:24;;;;;;;20.77;9.93;;;4.80;99.90;;;;;;6207356;23;20161;-36
2022/03/18 04:35:51;;;;;;;21.37;10.37;;;4.80;99.90;;;;;;6209079;23;20087;-32
2022/03/18 04:38:17;;;;;;;19.93;9.43;;;4.80;99.90;;;;;;6189285;23;20336;-33
2022/03/18 04:40:43;;;;;;;18.10;10.00;;;4.80;99.90;;;;;;6208554;23;20051;-35
2022/03/18 04:43:09;;;;;;;21.70;10.20;;;4.80;99.90;;;;;;6205205;23;20063;-35
2022/03/18 04:45:35;;;;;;;20.30;10.03;;;4.80;99.90;;;;;;6208081;23;20360;-32
2022/03/18 04:48:00;;;;;;;18.60;9.97;;;4.80;99.90;;;;;;6188615;23;20341;-34
2022/03/18 04:50:27;;;;;;;17.27;9.53;;;4.90;99.90;;;;;;6208315;23;20375;-35
2022/03/18 04:52:53;;;;;;;19.23;9.90;;;4.90;99.90;;;;;;6207313;23;20440;-32
2022/03/18 04:55:19;;;;;;;22.20;9.57;;;4.90;99.90;;;;;;6208184;23;20021;-34
2022/03/18 04:57:44;;;;;;;16.30;9.67;;;4.90;99.90;;;;;;6186583;23;20012;-34
2022/03/18 05:00:11;;;;;;;19.00;9.90;;;4.90;99.90;;;;;;6207489;23;20028;-35
2022/03/18 05:02:38;;;;;;;20.20;10.33;;;4.90;99.90;;;;;;6205719;23;20392;-33
2022/03/18 05:05:11;;;;;;;20.90;10.10;;;4.90;99.90;;;;;;6206237;23;20017;-34
2022/03/18 05:07:41;;;;;;;19.53;9.37;;;4.90;99.90;;;;;;6185421;23;20086;-35
2022/03/18 05:10:08;;;;;;;16.87;8.70;;;4.80;99.90;;;;;;6206911;23;20172;-35
2022/03/18 05:12:33;;;;;;;13.50;8.13;;;4.80;99.90;;;;;;6205196;23;20346;-36
2022/03/18 05:14:59;;;;;;;16.10;8.67;;;4.70;99.90;;;;;;6207185;23;20142;-35
2022/03/18 05:17:25;;;;;;;14.73;7.73;;;4.70;99.90;;;;;;6188785;23;20449;-35
2022/03/18 05:19:51;;;;;;;14.43;7.77;;;4.60;99.90;;;;;;6207821;23;20070;-34
2022/03/18 05:22:17;;;;;;;19.90;9.03;;;4.50;99.90;;;;;;6207077;23;20021;-36
2022/03/18 05:24:42;;;;;;;26.23;12.77;;;4.50;99.90;;;;;;6208055;23;20013;-34
2022/03/18 05:27:08;;;;;;;24.07;11.20;;;4.40;99.90;;;;;;6186334;23;20035;-34
2022/03/18 05:29:35;;;;;;;16.53;9.53;;;4.30;99.90;;;;;;6207318;23;20017;-33
2022/03/18 05:32:02;;;;;;;14.63;9.37;;;4.30;99.90;;;;;;6205964;23;20067;-34
2022/03/18 05:34:28;;;;;;;18.63;9.27;;;4.20;99.90;;;;;;6204889;23;20025;-32
2022/03/18 05:36:54;;;;;;;13.97;8.40;;;4.20;99.90;;;;;;6186896;23;20020;-34
2022/03/18 05:39:19;;;;;;;12.30;8.37;;;4.10;99.90;;;;;;6205181;23;20102;-35
2022/03/18 05:41:46;;;;;;;15.03;8.70;;;4.00;99.90;;;;;;6205925;23;20021;-35
2022/03/18 05:44:12;;;;;;;20.10;9.17;;;4.00;99.90;;;;;;6206338;23;20428;-34
2022/03/18 05:46:38;;;;;;;17.80;8.27;;;3.90;99.90;;;;;;6190731;23;20029;-35
2022/03/18 05:49:04;;;;;;;15.47;9.00;;;3.80;99.90;;;;;;6204428;23;20689;-35
2022/03/18 05:51:31;;;;;;;21.73;9.33;;;3.80;99.90;;;;;;6207839;23;20056;-35
2022/03/18 05:53:56;;;;;;;21.63;9.60;;;3.80;99.90;;;;;;6206802;23;20101;-33
2022/03/18 05:59:09;;;;;;;16.13;8.90;;;3.70;99.90;;;;;;6201738;23;20359;-35
2022/03/18 06:01:39;;;;;;;16.23;8.43;;;3.70;99.90;;;;;;6205506;23;20028;-35
2022/03/18 06:04:06;;;;;;;17.80;9.50;;;3.70;99.90;;;;;;6206331;23;20059;-34
2022/03/18 06:06:32;;;;;;;20.87;9.87;;;3.60;99.90;;;;;;6191245;23;20430;-33
2022/03/18 06:11:48;;;;;;;16.27;9.07;;;3.60;99.90;;;;;;6206803;23;20128;-34
2022/03/18 06:14:14;;;;;;;;;;;3.50;99.90;;;;;;6178951;23;20083;-34
2022/03/18 06:16:40;;;;;;;16.07;9.63;;;3.50;99.90;;;;;;6188107;23;19923;-34
2022/03/18 06:19:06;;;;;;;16.50;8.80;;;3.50;99.90;;;;;;6203429;23;20071;-34
2022/03/18 06:21:32;;;;;;;19.67;10.10;;;3.50;99.90;;;;;;6206068;23;20016;-35
2022/03/18 06:23:57;;;;;;;19.60;10.83;;;3.40;99.90;;;;;;6206351;23;20357;-35
2022/03/18 06:26:23;;;;;;;22.03;10.37;;;3.50;99.90;;;;;;6192107;23;20056;-35
2022/03/18 06:28:49;;;;;;;16.07;10.20;;;3.40;99.90;;;;;;6201489;23;20027;-32
2022/03/18 06:31:15;;;;;;;22.00;11.77;;;3.50;99.90;;;;;;6204856;23;20483;-37
2022/03/18 06:33:44;;;;;;;17.17;10.03;;;3.50;99.90;;;;;;6206222;23;20032;-35
2022/03/18 06:36:14;;;;;;;23.77;12.00;;;3.50;99.90;;;;;;6197714;23;20416;-36
2022/03/18 06:38:40;;;;;;;16.73;11.63;;;3.60;99.90;;;;;;6196148;23;20052;-35
2022/03/18 06:41:06;;;;;;;19.17;10.87;;;3.60;99.90;;;;;;6205798;23;20017;-34
2022/03/18 06:43:32;;;;;;;26.00;12.50;;;3.70;99.90;;;;;;6204400;23;20030;-34
2022/03/18 06:45:58;;;;;;;23.63;12.33;;;3.70;99.90;;;;;;6205155;23;20055;-35
2022/03/18 06:48:25;;;;;;;21.57;13.77;;;3.80;99.90;;;;;;6187000;23;20029;-34
2022/03/18 06:50:51;;;;;;;23.83;14.50;;;3.90;99.90;;;;;;6207090;23;20024;-35
2022/03/18 06:53:17;;;;;;;25.90;15.17;;;3.90;99.90;;;;;;6205141;23;20025;-37
2022/03/18 06:55:42;;;;;;;20.33;13.00;;;4.10;99.90;;;;;;6207117;23;20062;-37
2022/03/18 06:58:08;;;;;;;23.37;14.77;;;4.10;99.90;;;;;;6181963;23;20031;-37
2022/03/18 07:00:35;;;;;;;30.30;15.83;;;4.20;99.90;;;;;;6201909;23;20017;-37
2022/03/18 07:03:01;;;;;;;27.87;15.23;;;4.30;99.90;;;;;;6204323;23;20013;-37
2022/03/18 07:05:27;;;;;;;30.77;15.80;;;4.40;99.90;;;;;;6205825;23;20016;-37
2022/03/18 07:07:53;;;;;;;24.97;15.33;;;4.40;99.90;;;;;;6184502;23;20090;-37
2022/03/18 07:10:19;;;;;;;27.33;16.47;;;4.50;99.90;;;;;;6205598;23;20233;-37
2022/03/18 07:12:45;;;;;;;25.97;15.47;;;4.60;99.90;;;;;;6205641;23;20055;-35
2022/03/18 07:15:10;;;;;;;30.70;16.27;;;4.60;99.90;;;;;;6179725;23;20341;-32
2022/03/18 07:17:55;;;;;;;30.77;15.10;;;4.70;99.90;;;;;;6187415;23;20012;-34
2022/03/18 07:20:22;;;;;;;26.03;14.97;;;4.80;99.90;;;;;;6206938;23;20396;-35
2022/03/18 07:23:02;;;;;;;26.50;16.23;;;4.80;99.90;;;;;;6203251;23;20108;-34
2022/03/18 07:25:28;;;;;;;27.40;15.73;;;5.00;99.90;;;;;;6204583;23;20769;-32
2022/03/18 07:27:54;;;;;;;32.23;16.90;;;5.00;99.90;;;;;;6187028;23;20025;-35
2022/03/18 07:30:19;;;;;;;28.77;16.53;;;5.10;99.90;;;;;;6205357;23;20078;-35
2022/03/18 07:32:45;;;;;;;31.13;16.13;;;5.20;99.90;;;;;;6205447;23;20016;-36
2022/03/18 07:35:11;;;;;;;32.13;16.70;;;5.20;99.90;;;;;;6205949;23;20025;-34
2022/03/18 07:37:37;;;;;;;28.10;15.93;;;5.30;99.90;;;;;;6187885;23;20088;-33
2022/03/18 07:40:05;;;;;;;32.53;16.33;;;5.40;99.90;;;;;;6204663;23;20024;-32
2022/03/18 07:42:48;;;;;;;29.40;16.83;;;5.40;99.90;;;;;;6206215;23;20021;-33
2022/03/18 07:45:26;;;;;;;26.60;15.93;;;5.50;99.90;;;;;;6204003;23;20012;-36
2022/03/18 07:47:53;;;;;;;27.43;15.80;;;5.60;99.90;;;;;;6185268;23;20020;-32
2022/03/18 07:50:20;;;;;;;31.77;15.37;;;5.70;99.90;;;;;;6206568;23;20114;-32
2022/03/18 07:52:51;;;;;;;34.83;16.83;;;5.80;99.90;;;;;;6206519;23;20028;-35
2022/03/18 07:55:22;;;;;;;33.03;16.07;;;5.80;99.90;;;;;;6204185;23;20017;-35
2022/03/18 07:57:48;;;;;;;32.22;17.25;;;5.90;99.90;;;;;;6187662;23;20084;-34
2022/03/18 08:00:15;;;;;;;37.17;16.83;;;6.00;99.90;;;;;;6204973;23;20025;-35
2022/03/18 08:02:42;;;;;;;33.17;18.00;;;6.00;99.90;;;;;;6207181;23;20044;-32
2022/03/18 08:05:09;;;;;;;29.43;16.60;;;6.00;99.90;;;;;;6207131;23;20063;-37
2022/03/18 08:07:35;;;;;;;32.53;16.80;;;6.20;99.90;;;;;;6187758;23;20020;-35
2022/03/18 08:10:01;;;;;;;34.27;15.97;;;6.20;99.90;;;;;;6208214;23;20225;-35
2022/03/18 08:12:31;;;;;;;33.10;16.00;;;6.30;99.90;;;;;;6208192;23;20483;-35
2022/03/18 08:15:02;;;;;;;36.70;17.10;;;6.40;99.90;;;;;;6208436;23;20023;-32
2022/03/18 08:17:28;;;;;;;34.37;16.80;;;6.50;99.90;;;;;;6188809;23;20017;-33
2022/03/18 08:19:54;;;;;;;32.63;15.83;;;6.60;99.90;;;;;;6207528;23;20035;-37
2022/03/18 08:22:21;;;;;;;33.47;15.77;;;6.60;99.90;;;;;;6180787;23;20067;-34
2022/03/18 08:24:47;;;;;;;33.57;16.07;;;6.70;99.90;;;;;;6208217;23;20437;-35
2022/03/18 08:27:13;;;;;;;29.47;15.07;;;6.80;99.90;;;;;;6188347;23;20475;-36
2022/03/18 08:29:39;;;;;;;31.07;15.40;;;6.90;99.90;;;;;;6205649;23;20021;-37
2022/03/18 08:32:06;;;;;;;34.57;15.83;;;7.00;99.90;;;;;;6207311;23;20029;-36
2022/03/18 08:34:32;;;;;;;30.87;14.33;;;7.00;99.90;;;;;;6207440;23;20309;-36
2022/03/18 08:36:58;;;;;;;31.43;14.97;;;7.00;99.90;;;;;;6189576;23;20155;-33
2022/03/18 08:39:24;;;;;;;34.97;14.93;;;7.20;99.90;;;;;;6207961;23;20017;-36
2022/03/18 08:41:50;;;;;;;32.13;15.43;;;7.30;99.90;;;;;;6209403;23;20453;-35
2022/03/18 08:44:19;;;;;;;37.03;15.03;;;7.30;99.90;;;;;;6205281;23;20024;-36
2022/03/18 08:46:46;;;;;;;41.03;16.30;;;7.40;99.90;;;;;;6190000;23;20024;-37
2022/03/18 08:49:12;;;;;;;33.37;15.10;;;7.50;99.90;;;;;;6205357;23;20052;-36
2022/03/18 08:51:38;;;;;;;33.27;14.50;;;7.60;99.90;;;;;;6201726;23;20058;-37
2022/03/18 08:54:04;;;;;;;34.43;15.17;;;7.60;99.90;;;;;;6203839;23;20432;-38
2022/03/18 08:56:31;;;;;;;37.27;15.77;;;7.70;99.90;;;;;;6188507;23;20019;-37
2022/03/18 08:58:57;;;;;;;33.67;15.27;;;7.80;99.90;;;;;;6204774;23;20096;-37
2022/03/18 09:01:23;;;;;;;35.47;15.70;;;7.90;99.90;;;;;;6206050;23;20035;-37
2022/03/18 09:03:49;;;;;;;33.13;14.10;;;7.90;99.90;;;;;;6207674;23;20028;-38
2022/03/18 09:06:14;;;;;;;32.77;13.43;;;8.00;99.90;;;;;;6193915;23;20391;-36
2022/03/18 09:08:41;;;;;;;29.20;13.40;;;8.10;99.90;;;;;;6196715;23;20025;-36
2022/03/18 09:11:07;;;;;;;32.83;13.67;;;8.20;99.90;;;;;;6206904;23;20017;-36
2022/03/18 09:13:35;;;;;;;30.00;12.67;;;8.40;99.90;;;;;;6205969;23;20245;-35
2022/03/18 09:16:04;;;;;;;31.13;11.63;;;8.30;99.90;;;;;;6207150;23;20074;-35
2022/03/18 09:18:31;;;;;;;30.10;10.90;;;8.50;99.90;;;;;;6188133;23;20096;-36
2022/03/18 09:20:57;;;;;;;25.40;10.63;;;8.50;99.90;;;;;;6206933;23;20035;-36
2022/03/18 09:23:23;;;;;;;28.00;10.80;;;8.60;99.90;;;;;;6204107;23;20581;-36
2022/03/18 09:25:49;;;;;;;30.63;10.50;;;8.70;99.90;;;;;;6207221;23;20020;-37
2022/03/18 09:28:14;;;;;;;31.60;10.50;;;8.80;99.90;;;;;;6187141;23;20039;-35
2022/03/18 09:30:41;;;;;;;31.67;11.33;;;8.80;99.90;;;;;;6207200;23;20092;-36
2022/03/18 09:33:07;;;;;;;32.43;10.53;;;9.00;99.90;;;;;;6205850;23;20028;-36
2022/03/18 09:35:34;;;;;;;29.37;10.33;;;9.00;99.90;;;;;;6206081;23;20020;-36
2022/03/18 09:37:59;;;;;;;33.10;10.93;;;9.10;99.90;;;;;;6186900;23;20020;-35
2022/03/18 09:40:25;;;;;;;34.17;10.37;;;9.20;99.90;;;;;;6207574;23;20222;-36
2022/03/18 09:42:55;;;;;;;22.67;9.30;;;9.30;99.90;;;;;;6205577;23;20108;-35
2022/03/18 09:45:21;;;;;;;35.77;10.17;;;9.40;99.90;;;;;;6207064;23;20028;-36
2022/03/18 09:47:48;;;;;;;32.20;10.40;;;9.40;99.90;;;;;;6188624;23;20020;-35
2022/03/18 09:50:15;;;;;;;27.90;10.57;;;9.50;99.90;;;;;;6205316;23;20460;-36
2022/03/18 09:52:42;;;;;;;29.57;10.17;;;9.60;99.90;;;;;;6206431;23;20383;-35
2022/03/18 09:55:07;;;;;;;22.20;10.33;;;9.70;99.90;;;;;;6181348;23;20025;-36
2022/03/18 09:57:33;;;;;;;25.67;9.10;;;9.80;99.90;;;;;;6187133;23;20467;-40
2022/03/18 09:59:59;;;;;;;35.53;10.80;;;9.80;99.90;;;;;;6207174;23;20570;-35
2022/03/18 10:02:30;;;;;;;31.00;9.90;;;9.90;99.90;;;;;;6207027;23;20177;-38
2022/03/18 10:04:58;;;;;;;30.63;9.63;;;10.00;99.90;;;;;;6205757;23;20017;-36
2022/03/18 10:07:25;;;;;;;36.80;10.20;;;10.00;99.90;;;;;;6187181;23;20020;-33
2022/03/18 10:10:23;;;;;;;27.47;9.87;;;10.10;99.90;;;;;;6205484;23;20031;-39
2022/03/18 10:12:49;;;;;;;28.17;9.83;;;10.20;99.90;;;;;;6183474;23;20020;-36
2022/03/18 10:15:23;;;;;;;27.10;9.23;;;10.30;99.90;;;;;;6206083;23;20520;-35
2022/03/18 10:17:53;;;;;;;28.30;9.17;;;10.40;99.90;;;;;;6187635;23;20017;-37
2022/03/18 10:20:29;;;;;;;26.93;8.83;;;10.50;99.90;;;;;;6207285;23;20023;-37
2022/03/18 10:22:58;;;;;;;33.20;9.60;;;10.50;99.90;;;;;;6206224;23;20028;-37
2022/03/18 10:25:42;;;;;;;29.63;9.60;;;10.60;99.90;;;;;;6207074;23;20024;-36
2022/03/18 10:28:10;;;;;;;28.77;9.00;;;10.70;99.90;;;;;;6184615;23;20470;-35
2022/03/18 10:30:36;;;;;;;27.73;9.57;;;10.80;99.90;;;;;;6206889;23;20223;-35
2022/03/18 10:33:03;;;;;;;26.87;9.30;;;10.90;99.90;;;;;;6204747;23;20017;-36
2022/03/18 10:38:29;;;;;;;27.47;9.03;;;11.10;99.90;;;;;;6187393;23;20138;-37
2022/03/18 10:40:55;;;;;;;26.13;8.27;;;11.20;99.90;;;;;;6207288;23;20020;-37
2022/03/18 10:43:21;;;;;;;26.90;8.77;;;11.20;99.90;;;;;;6206208;23;20197;-37
2022/03/18 10:46:04;;;;;;;24.27;8.27;;;11.30;99.90;;;;;;6206467;23;20043;-34
2022/03/18 10:48:31;;;;;;;21.83;7.80;;;11.40;99.90;;;;;;6187370;23;20507;-36
2022/03/18 10:51:07;;;;;;;22.53;7.53;;;11.50;99.90;;;;;;6206826;23;20074;-36
2022/03/18 10:53:34;;;;;;;22.33;7.37;;;11.60;99.90;;;;;;6205754;23;20025;-36
2022/03/18 10:56:01;;;;;;;26.33;7.70;;;11.70;99.90;;;;;;6206187;23;20518;-37
2022/03/18 10:58:32;;;;;;;27.40;7.50;;;11.80;99.90;;;;;;6185187;23;20548;-34
2022/03/18 11:01:01;;;;;;;27.23;7.57;;;11.90;99.90;;;;;;6200725;23;20103;-36
2022/03/18 11:03:28;;;;;;;18.15;6.95;;;12.00;99.90;;;;;;6205046;23;20026;-37
2022/03/18 11:05:54;;;;;;;24.17;7.22;;;12.10;99.90;;;;;;6205679;23;20066;-36
2022/03/18 11:08:27;;;;;;;28.40;7.53;;;12.10;99.90;;;;;;6186245;23;20697;-36
2022/03/18 11:11:07;;;;;;;22.13;6.45;;;12.20;99.90;;;;;;6206335;23;20452;-35
2022/03/18 11:14:00;;;;;;;25.10;7.00;;;12.20;99.90;;;;;;6204623;23;20066;-35
2022/03/18 11:16:31;;;;;;;20.02;6.65;;;12.30;99.90;;;;;;6190749;23;20502;-36
2022/03/18 11:19:04;;;;;;;23.05;6.88;;;12.40;99.90;;;;;;6202827;23;20044;-36
2022/03/18 11:21:39;;;;;;;26.52;6.72;;;12.40;99.90;;;;;;6205715;23;20059;-36
2022/03/18 11:24:11;;;;;;;22.02;6.40;;;12.40;99.90;;;;;;6204049;23;20203;-36
2022/03/18 11:26:37;;;;;;;27.20;6.55;;;12.50;99.90;;;;;;6189401;23;20344;-36
2022/03/18 11:29:13;;;;;;;21.30;6.55;;;12.50;99.90;;;;;;6202207;23;20032;-36
2022/03/18 11:31:39;;;;;;;22.15;7.30;;;12.60;99.90;;;;;;6205365;23;20067;-35
2022/03/18 11:34:17;;;;;;;18.20;6.57;;;12.60;99.90;;;;;;6203668;23;20028;-37
2022/03/18 11:37:05;;;;;;;20.17;6.03;;;12.70;99.90;;;;;;6188203;23;20052;-38
2022/03/18 11:39:31;;;;;;;23.33;6.60;;;12.80;99.90;;;;;;6206430;23;20084;-36
2022/03/18 11:42:03;;;;;;;25.23;6.15;;;12.80;99.90;;;;;;6209281;23;20190;-36
2022/03/18 11:44:42;;;;;;;18.95;5.72;;;12.80;99.90;;;;;;6206856;23;20529;-36
2022/03/18 11:47:20;;;;;;;17.65;6.35;;;12.90;99.90;;;;;;6188669;23;20028;-36
2022/03/18 11:49:51;;;;;;;22.73;6.68;;;13.00;99.90;;;;;;6208512;23;20023;-36
2022/03/18 11:52:17;;;;;;;23.67;6.43;;;13.10;99.90;;;;;;6206278;23;20021;-36
2022/03/18 11:55:11;;;;;;;18.17;6.25;;;13.20;99.90;;;;;;6205728;23;20096;-37
2022/03/18 11:57:45;;;;;;;27.02;6.85;;;13.30;99.90;;;;;;6188663;23;20020;-36
2022/03/18 12:00:33;;;;;;;18.63;6.50;;;13.40;99.90;;;;;;6205971;23;20023;-37
2022/03/18 12:03:04;;;;;;;21.75;6.72;;;13.40;99.90;;;;;;6207764;23;20338;-37
2022/03/18 12:05:31;;;;;;;27.05;7.03;;;13.50;99.90;;;;;;6207554;23;20093;-36
2022/03/18 12:07:59;;;;;;;25.00;6.25;;;13.50;99.90;;;;;;6187976;23;20464;-36
2022/03/18 12:10:36;;;;;;;27.02;7.18;;;13.60;99.90;;;;;;6208232;23;20027;-37
2022/03/18 12:13:03;;;;;;;17.42;6.22;;;13.60;99.90;;;;;;6205828;23;20012;-37
2022/03/18 12:15:30;;;;;;;22.55;6.50;;;13.70;99.90;;;;;;6208164;23;20444;-35
2022/03/18 12:17:59;;;;;;;23.65;6.30;;;13.70;99.90;;;;;;6188480;23;20547;-37
2022/03/18 12:20:31;;;;;;;18.88;5.97;;;13.70;99.90;;;;;;6206022;23;20230;-36
2022/03/18 12:23:00;;;;;;;20.75;6.60;;;13.70;99.90;;;;;;6207492;23;20028;-35
2022/03/18 12:25:26;;;;;;;19.15;6.28;;;13.70;99.90;;;;;;6206095;23;20048;-36
2022/03/18 12:27:53;;;;;;;19.30;6.22;;;13.70;99.90;;;;;;6160669;23;20380;-36
2022/03/18 12:30:26;;;;;;;23.33;6.60;;;13.70;99.90;;;;;;6205896;23;20020;-36
2022/03/18 12:33:00;;;;;;;20.60;6.88;;;13.70;99.90;;;;;;6207899;23;20016;-36
2022/03/18 12:35:27;;;;;;;17.20;6.20;;;13.80;99.90;;;;;;6206153;23;20017;-37
2022/03/18 12:38:22;;;;;;;23.88;6.82;;;13.70;99.90;;;;;;6188885;23;20016;-35
2022/03/18 12:41:01;;;;;;;24.40;6.63;;;13.80;99.90;;;;;;6174903;23;20111;-37
2022/03/18 12:43:31;;;;;;;24.23;6.07;;;13.90;99.90;;;;;;6205935;23;20021;-35
2022/03/18 12:45:57;;;;;;;24.42;5.70;;;13.80;99.90;;;;;;6208091;23;20013;-35
2022/03/18 12:48:23;;;;;;;20.83;6.13;;;13.90;99.90;;;;;;6187982;23;20309;-36
2022/03/18 12:50:57;;;;;;;18.95;5.68;;;13.90;99.90;;;;;;6208499;23;20332;-36
2022/03/18 12:53:28;;;;;;;18.40;5.80;;;13.90;99.90;;;;;;6206899;23;20045;-34
2022/03/18 12:55:55;;;;;;;;;;;13.90;99.90;;;;;;6208486;23;20023;-36
2022/03/18 12:58:23;;;;;;;19.08;5.47;;;13.80;99.90;;;;;;6187635;23;19920;-37
2022/03/18 13:00:55;;;;;;;18.58;5.35;;;13.80;99.90;;;;;;6208119;23;20017;-35
2022/03/18 13:03:27;;;;;;;20.75;5.50;;;13.80;99.90;;;;;;6206990;23;20039;-37